UTTT/TAS METAR and TAF weather

Enter ICAO airport designator
Station Type Date Time Source
UTTT METAR 2022/12/01 00:00 UTC NOAA

UTTT 010000Z 32004KT 9999 SCT050CB M01/M03 Q1030 R08L/CLRD70 NOSIG


Station Type Date Time Source
UTTT Decoded METAR 2022/12/01 00:00 UTC NOAA

Tashkent, Uzbekistan (UTTT) 41-16N 069-16E 488M
Nov 30, 2022 - 07:00 PM EST / 2022.12.01 0000 UTC
Wind: from the NW (320 degrees) at 5 MPH (4 KT):0
Visibility: greater than 7 mile(s):0
Sky conditions: partly cloudy
Weather: Cumulonimbus clouds observed
Temperature: 30 F (-1 C)
Windchill: 24 F (-4 C):1
Dew Point: 26 F (-3 C)
Relative Humidity: 86%
Pressure (altimeter): 30.42 in. Hg (1030 hPa)
ob: UTTT 010000Z 32004KT 9999 SCT050CB M01/M03 Q1030 R08L/CLRD70 NOSIG
cycle: 0

Station Type Date Time Source
UTTT TAF 2022/11/30 18:09 UTC NOAA

TAF UTTT 301700Z 3018/0118 32010KT 6000 -SHRA SCT010 BKN030CB
TEMPO 3018/0103 26019G29KT 1500 SHSN BR BKN004 OVC020CB
BECMG 0103/0105 7000 NSW

Example: see airport list